Time;durP1;ratioP1;P1;durP2;ratioP2;P2;SDS_P1;SDS_P2;PMS_P1;PMS_P2;Temp;Humidity;BMP_temperature;BMP_pressure;BME280_temperature;BME280_humidity;BME280_pressure;Samples;Min_cycle;Max_cycle;Signal;HPM_P1;HPM_P2
2022/01/04 00:00:14;;;;;;;17.27;5.22;;;;;;;4.34;100.00;97712.09;4367385;32;20473;-74
2022/01/04 00:03:00;;;;;;;18.45;4.32;;;;;;;4.54;100.00;97737.44;4350957;32;20439;-75
2022/01/04 00:05:27;;;;;;;18.08;4.28;;;;;;;4.39;100.00;97734.53;4344999;33;20430;-75
2022/01/04 00:07:54;;;;;;;13.68;4.30;;;;;;;4.45;100.00;97745.06;4356002;33;20433;-75
2022/01/04 00:10:26;;;;;;;11.25;4.22;;;;;;;4.33;100.00;97731.78;4343838;33;20113;-74
2022/01/04 00:15:41;;;;;;;10.00;3.65;;;;;;;4.15;100.00;97708.03;4340862;33;20044;-75
2022/01/04 00:18:09;;;;;;;10.73;4.20;;;;;;;4.24;100.00;97738.53;4341910;33;20176;-75
2022/01/04 00:20:35;;;;;;;17.10;4.20;;;;;;;4.26;100.00;97739.13;4356124;33;20036;-75
2022/01/04 00:23:02;;;;;;;16.92;5.28;;;;;;;4.09;100.00;97736.44;4355333;32;20365;-73
2022/01/04 00:25:29;;;;;;;15.68;4.45;;;;;;;3.99;100.00;97696.31;4357294;33;20118;-75
2022/01/04 00:27:56;;;;;;;15.88;3.97;;;;;;;4.18;100.00;97736.87;4357008;33;20151;-74
2022/01/04 00:30:28;;;;;;;16.55;5.85;;;;;;;4.15;100.00;97750.66;4357454;33;20073;-73
2022/01/04 00:32:55;;;;;;;19.55;7.32;;;;;;;3.98;100.00;97708.81;4356710;32;20369;-75
2022/01/04 00:35:22;;;;;;;12.55;4.30;;;;;;;4.12;100.00;97724.50;4355581;32;20045;-74
2022/01/04 00:37:48;;;;;;;17.08;4.78;;;;;;;3.83;100.00;97695.22;4363522;32;20119;-73
2022/01/04 00:40:15;;;;;;;14.05;4.90;;;;;;;3.87;100.00;97685.69;4371129;32;20068;-74
2022/01/04 00:42:42;;;;;;;15.60;5.12;;;;;;;3.91;100.00;97692.19;4383505;32;20051;-74
2022/01/04 00:45:08;;;;;;;12.27;5.47;;;;;;;4.04;100.00;97722.19;4372216;32;20071;-74
2022/01/04 00:49:09;;;;;;;12.00;5.05;;;;;;;3.85;100.00;97693.13;4384338;32;20088;-74
2022/01/04 00:50:27;;;;;;;13.25;5.43;;;;;;;3.89;100.00;97686.25;4363822;32;20115;-75
2022/01/04 00:52:56;;;;;;;13.93;4.93;;;;;;;4.04;100.00;97727.53;4353260;32;20043;-74
2022/01/04 00:55:24;;;;;;;12.30;4.87;;;;;;;3.56;100.00;97647.88;4355239;32;20048;-75
2022/01/04 00:57:50;;;;;;;21.23;5.10;;;;;;;3.99;100.00;97714.97;4354930;32;20044;-75
2022/01/04 01:00:19;;;;;;;15.02;5.87;;;;;;;4.03;100.00;97725.94;4356636;32;20442;-75
2022/01/04 01:02:46;;;;;;;18.77;5.12;;;;;;;3.98;100.00;97714.13;4366862;32;20400;-75
2022/01/04 01:05:14;;;;;;;25.27;6.10;;;;;;;4.04;100.00;97707.06;4372755;32;20043;-75
2022/01/04 01:07:41;;;;;;;8.75;4.78;;;;;;;4.02;100.00;97718.97;4359525;32;20463;-75
2022/01/04 01:12:44;;;;;;;15.82;5.28;;;;;;;4.10;100.00;97710.59;4356887;32;20095;-75
2022/01/04 01:15:10;;;;;;;17.98;5.95;;;;;;;4.03;100.00;97704.63;4370781;32;20069;-75
2022/01/04 01:17:37;;;;;;;14.93;5.57;;;;;;;3.92;100.00;97679.66;4358817;32;20054;-74
2022/01/04 01:20:08;;;;;;;14.48;4.87;;;;;;;3.91;100.00;97681.53;4372019;32;20062;-74
2022/01/04 01:22:35;;;;;;;15.32;4.53;;;;;;;4.15;100.00;97700.84;4371664;32;20035;-73
2022/01/04 01:25:03;;;;;;;14.73;4.60;;;;;;;4.16;100.00;97712.31;4371241;32;20051;-74
2022/01/04 01:27:30;;;;;;;10.85;5.22;;;;;;;4.11;100.00;97696.25;4372001;32;20089;-74
2022/01/04 01:29:56;;;;;;;15.05;4.25;;;;;;;4.00;100.00;97690.75;4370660;32;20058;-75
2022/01/04 01:32:29;;;;;;;12.68;4.43;;;;;;;4.01;100.00;97680.88;4371635;32;20065;-74
2022/01/04 01:34:56;;;;;;;18.25;4.15;;;;;;;4.14;100.00;97722.41;4370422;32;20078;-74
2022/01/04 01:37:29;;;;;;;8.35;3.35;;;;;;;4.11;100.00;97715.69;4369429;32;20031;-75
2022/01/04 01:39:56;;;;;;;10.10;4.47;;;;;;;3.87;100.00;97667.06;4370477;32;20044;-77
2022/01/04 01:42:23;;;;;;;18.62;5.47;;;;;;;4.17;100.00;97681.97;4371532;32;20495;-75
2022/01/04 01:44:50;;;;;;;17.67;4.30;;;;;;;4.16;100.00;97677.66;4371086;32;20365;-74
2022/01/04 01:47:17;;;;;;;10.43;4.47;;;;;;;4.01;100.00;97680.88;4372041;32;20358;-76
2022/01/04 01:49:44;;;;;;;13.82;5.05;;;;;;;4.06;100.00;97677.50;4370337;32;20077;-74
2022/01/04 01:52:11;;;;;;;11.65;4.65;;;;;;;4.03;100.00;97673.47;4371530;32;20078;-76
2022/01/04 01:54:38;;;;;;;17.12;4.60;;;;;;;4.06;100.00;97669.53;4371198;32;20043;-75
2022/01/04 01:57:05;;;;;;;11.23;4.82;;;;;;;4.07;100.00;97668.44;4352622;32;20044;-74
2022/01/04 01:59:31;;;;;;;10.05;4.72;;;;;;;3.93;100.00;97636.81;4354628;32;20055;-75
2022/01/04 02:01:58;;;;;;;11.63;6.03;;;;;;;4.12;100.00;97649.91;4355592;32;20055;-75
2022/01/04 02:04:26;;;;;;;15.95;5.18;;;;;;;3.84;100.00;97611.62;4365391;32;20499;-75
2022/01/04 02:06:52;;;;;;;15.10;5.28;;;;;;;4.09;100.00;97666.38;4369514;32;20360;-74
2022/01/04 02:09:19;;;;;;;13.82;5.03;;;;;;;4.10;100.00;97652.00;4370679;32;20039;-75
2022/01/04 02:11:47;;;;;;;21.05;5.30;;;;;;;4.07;100.00;97660.47;4369977;32;20349;-75
2022/01/04 02:14:13;;;;;;;19.48;6.30;;;;;;;4.08;100.00;97648.78;4370295;32;20043;-75
2022/01/04 02:16:39;;;;;;;14.77;5.65;;;;;;;4.09;100.00;97650.41;4370068;32;20053;-75
2022/01/04 02:19:08;;;;;;;13.45;6.60;;;;;;;4.16;100.00;97645.69;4371166;32;20059;-75
2022/01/04 02:21:35;;;;;;;11.93;4.45;;;;;;;4.20;100.00;97652.16;4370857;32;20065;-75
2022/01/04 02:24:09;;;;;;;29.00;10.48;;;;;;;4.26;100.00;97650.38;4370633;32;20072;-75
2022/01/04 02:26:36;;;;;;;17.08;5.90;;;;;;;4.28;100.00;97654.44;4371255;32;20069;-75
2022/01/04 02:29:03;;;;;;;17.80;6.12;;;;;;;4.09;100.00;97629.09;4370673;32;20040;-76
2022/01/04 02:31:29;;;;;;;17.77;4.97;;;;;;;3.96;100.00;97615.03;4369321;32;20093;-74
2022/01/04 02:33:56;;;;;;;12.60;5.40;;;;;;;4.26;100.00;97651.22;4370522;32;20447;-75
2022/01/04 02:36:22;;;;;;;10.57;5.30;;;;;;;4.14;100.00;97647.81;4368945;32;20836;-75
2022/01/04 02:38:51;;;;;;;16.87;4.90;;;;;;;4.24;100.00;97653.28;4371321;32;20040;-75
2022/01/04 02:41:18;;;;;;;15.80;6.50;;;;;;;4.19;100.00;97650.53;4371494;32;20049;-75
2022/01/04 02:43:45;;;;;;;15.98;4.62;;;;;;;4.18;100.00;97639.09;4372021;32;20058;-74
2022/01/04 02:46:11;;;;;;;13.32;5.22;;;;;;;4.22;100.00;97644.72;4371285;32;20072;-75
2022/01/04 02:48:45;;;;;;;10.88;4.28;;;;;;;4.19;100.00;97634.56;4371632;32;20558;-75
2022/01/04 02:51:11;;;;;;;12.25;4.53;;;;;;;4.15;100.00;97622.78;4372037;32;20892;-76
2022/01/04 02:53:38;;;;;;;10.57;4.80;;;;;;;4.13;100.00;97622.22;4370466;32;20796;-75
2022/01/04 02:56:05;;;;;;;15.13;4.15;;;;;;;4.15;100.00;97633.44;4370719;32;20039;-75
2022/01/04 02:58:31;;;;;;;15.05;4.20;;;;;;;4.14;100.00;97619.31;4370539;32;20194;-75
2022/01/04 03:00:58;;;;;;;14.65;4.20;;;;;;;3.99;100.00;97603.09;4370198;32;20043;-76
2022/01/04 03:03:25;;;;;;;15.95;4.32;;;;;;;4.14;100.00;97629.16;4369093;32;20061;-75
2022/01/04 03:05:51;;;;;;;9.85;4.57;;;;;;;3.90;100.00;97589.34;4368902;32;20074;-75
2022/01/04 03:08:19;;;;;;;9.13;3.28;;;;;;;3.91;100.00;97590.97;4369182;32;20403;-75
2022/01/04 03:10:45;;;;;;;11.60;4.87;;;;;;;4.15;100.00;97612.12;4370541;32;20068;-75
2022/01/04 03:13:13;;;;;;;12.32;4.35;;;;;;;4.17;100.00;97615.34;4354451;32;20052;-76
2022/01/04 03:15:40;;;;;;;13.57;4.28;;;;;;;3.96;100.00;97583.06;4368856;32;20061;-75
2022/01/04 03:18:06;;;;;;;8.55;3.78;;;;;;;4.20;100.00;97598.88;4369584;32;20516;-76
2022/01/04 03:20:33;;;;;;;13.70;5.07;;;;;;;4.25;100.00;97606.16;4369363;32;20047;-74
2022/01/04 03:23:01;;;;;;;12.90;4.03;;;;;;;4.28;100.00;97605.66;4369488;32;20039;-75
2022/01/04 03:25:28;;;;;;;10.40;4.15;;;;;;;4.27;100.00;97602.19;4369787;32;20043;-75
2022/01/04 03:27:54;;;;;;;10.77;3.53;;;;;;;4.33;100.00;97603.06;4370116;32;20081;-74
2022/01/04 03:30:21;;;;;;;12.00;4.10;;;;;;;4.31;100.00;97592.66;4370096;32;20443;-74
2022/01/04 03:32:47;;;;;;;10.50;3.70;;;;;;;4.33;100.00;97582.56;4356791;32;20202;-75
2022/01/04 03:35:15;;;;;;;11.65;3.83;;;;;;;4.30;100.00;97583.03;4356939;32;20032;-75
2022/01/04 03:37:43;;;;;;;11.98;4.32;;;;;;;4.02;100.00;97532.53;4353414;32;20159;-75
2022/01/04 03:40:10;;;;;;;17.95;4.53;;;;;;;4.37;100.00;97573.03;4353908;32;20361;-75
2022/01/04 03:42:44;;;;;;;12.52;4.75;;;;;;;4.39;100.00;97574.63;4354923;32;20060;-76
2022/01/04 03:45:10;;;;;;;9.60;4.25;;;;;;;4.39;100.00;97574.63;4368628;32;20240;-75
2022/01/04 03:47:37;;;;;;;7.78;3.80;;;;;;;4.41;100.00;97561.87;4370181;32;20027;-75
2022/01/04 03:50:04;;;;;;;12.18;4.50;;;;;;;4.41;100.00;97551.22;4370059;32;20042;-76
2022/01/04 03:52:31;;;;;;;19.17;4.60;;;;;;;4.42;100.00;97558.16;4370290;32;20122;-75
2022/01/04 03:54:57;;;;;;;8.10;4.15;;;;;;;4.45;100.00;97565.66;4369594;32;20040;-74
2022/01/04 03:57:24;;;;;;;10.23;5.12;;;;;;;4.42;100.00;97555.47;4368573;32;20035;-76
2022/01/04 03:59:57;;;;;;;11.35;4.20;;;;;;;4.33;100.00;97539.91;4369765;32;20073;-75
2022/01/04 04:02:24;;;;;;;13.60;4.47;;;;;;;4.42;100.00;97558.16;4356550;32;20185;-75
2022/01/04 04:04:57;;;;;;;8.70;4.32;;;;;;;4.16;100.00;97502.66;4370012;32;20043;-75
2022/01/04 04:07:24;;;;;;;15.30;4.80;;;;;;;4.47;100.00;97555.56;4370005;32;20388;-75
2022/01/04 04:09:50;;;;;;;8.90;4.43;;;;;;;4.46;100.00;97559.28;4368818;32;20092;-75
2022/01/04 04:12:17;;;;;;;7.60;3.95;;;;;;;4.31;100.00;97514.59;4368196;32;20043;-75
2022/01/04 04:14:43;;;;;;;6.18;4.43;;;;;;;4.48;100.00;97554.50;4369269;32;20055;-75
2022/01/04 04:17:10;;;;;;;7.50;4.40;;;;;;;4.53;100.00;97533.25;4369959;32;20078;-76
2022/01/04 04:19:42;;;;;;;10.90;4.95;;;;;;;4.28;100.00;97505.22;4369596;32;20416;-75
2022/01/04 04:22:09;;;;;;;12.45;4.68;;;;;;;4.51;100.00;97541.47;4370006;32;20353;-75
2022/01/04 04:24:35;;;;;;;12.68;4.55;;;;;;;4.56;100.00;97532.75;4369657;32;20420;-75
2022/01/04 04:27:02;;;;;;;9.60;4.10;;;;;;;4.32;100.00;97503.69;4369989;32;20484;-74
2022/01/04 04:29:28;;;;;;;12.40;4.30;;;;;;;4.42;100.00;97516.31;4369262;32;20167;-74
2022/01/04 04:31:55;;;;;;;11.15;4.72;;;;;;;4.58;100.00;97530.66;4372029;32;20427;-75
2022/01/04 04:34:28;;;;;;;11.12;4.53;;;;;;;4.62;100.00;97531.75;4370636;32;20089;-75
2022/01/04 04:36:55;;;;;;;13.27;4.25;;;;;;;4.57;100.00;97518.38;4372479;32;20426;-76
2022/01/04 04:39:21;;;;;;;8.65;4.37;;;;;;;4.68;100.00;97514.78;4372700;32;20486;-76
2022/01/04 04:41:49;;;;;;;12.20;4.20;;;;;;;4.66;100.00;97516.91;4359026;32;20036;-76
2022/01/04 04:44:16;;;;;;;8.65;3.50;;;;;;;4.75;100.00;97519.13;4371641;32;20098;-74
2022/01/04 04:46:43;;;;;;;5.70;3.45;;;;;;;4.71;100.00;97511.63;4371068;32;20061;-75
2022/01/04 04:49:09;;;;;;;6.12;3.70;;;;;;;4.65;100.00;97496.59;4371767;32;20081;-76
2022/01/04 04:51:37;;;;;;;8.85;4.12;;;;;;;4.69;100.00;97504.91;4372491;32;20051;-76
2022/01/04 04:54:04;;;;;;;10.90;4.18;;;;;;;4.51;100.00;97479.38;4372441;32;20036;-75
2022/01/04 04:56:30;;;;;;;6.90;4.00;;;;;;;4.63;100.00;97501.37;4345460;32;20083;-76
2022/01/04 04:58:57;;;;;;;8.07;4.15;;;;;;;4.63;100.00;97498.72;4371066;32;20043;-75
2022/01/04 05:01:23;;;;;;;7.05;3.62;;;;;;;4.61;100.00;97498.19;4371729;32;20081;-75
2022/01/04 05:03:52;;;;;;;9.45;4.30;;;;;;;4.67;100.00;97491.81;4371298;32;20047;-74
2022/01/04 05:06:19;;;;;;;12.20;4.72;;;;;;;4.37;100.00;97445.13;4371620;32;20061;-75
2022/01/04 05:08:45;;;;;;;6.72;3.85;;;;;;;4.71;100.00;97492.94;4372236;32;20075;-75
2022/01/04 05:11:11;;;;;;;4.18;3.08;;;;;;;4.56;100.00;97484.75;4357590;32;20628;-75
2022/01/04 05:13:38;;;;;;;19.48;5.20;;;;;;;4.32;100.00;97444.22;4371204;32;20047;-75
2022/01/04 05:16:04;;;;;;;12.48;4.28;;;;;;;4.59;100.00;97478.94;4371781;32;20028;-76
2022/01/04 05:18:31;;;;;;;6.90;3.47;;;;;;;4.62;100.00;97486.44;4372467;32;20086;-76
2022/01/04 05:20:58;;;;;;;6.55;3.47;;;;;;;4.58;100.00;97472.00;4372117;32;20044;-76
2022/01/04 05:23:24;;;;;;;8.10;3.92;;;;;;;4.49;100.00;97484.16;4370395;32;20415;-75
2022/01/04 05:25:50;;;;;;;8.82;4.32;;;;;;;4.52;100.00;97483.66;4357308;32;20079;-75
2022/01/04 05:28:17;;;;;;;5.65;4.00;;;;;;;4.50;100.00;97481.25;4371749;32;20937;-75
2022/01/04 05:30:43;;;;;;;6.43;3.80;;;;;;;4.31;100.00;97455.97;4371212;32;20156;-75
2022/01/04 05:33:10;;;;;;;8.32;4.03;;;;;;;4.41;100.00;97477.41;4372130;32;20077;-75
2022/01/04 05:35:37;;;;;;;9.35;4.37;;;;;;;4.12;100.00;97421.62;4370470;32;20430;-76
2022/01/04 05:38:03;;;;;;;7.28;4.30;;;;;;;4.13;100.00;97438.41;4371694;32;20047;-75
2022/01/04 05:40:30;;;;;;;8.77;5.43;;;;;;;4.39;100.00;97462.69;4371775;32;20051;-75
2022/01/04 05:42:56;;;;;;;8.88;4.43;;;;;;;4.43;100.00;97461.16;4371315;32;20039;-75
2022/01/04 05:45:23;;;;;;;10.95;6.15;;;;;;;4.46;100.00;97466.00;4368800;32;20039;-75
2022/01/04 05:47:50;;;;;;;10.55;6.65;;;;;;;4.43;100.00;97461.16;4356724;32;20056;-75
2022/01/04 05:50:18;;;;;;;9.63;5.22;;;;;;;4.42;100.00;97447.03;4371219;32;20108;-75
2022/01/04 05:52:44;;;;;;;9.10;5.45;;;;;;;4.34;100.00;97450.94;4371749;32;20036;-75
2022/01/04 05:55:11;;;;;;;10.98;4.78;;;;;;;4.27;100.00;97439.66;4371620;32;20060;-75
2022/01/04 05:57:38;;;;;;;11.90;5.82;;;;;;;4.25;100.00;97431.09;4358960;32;20081;-74
2022/01/04 06:00:06;;;;;;;8.38;4.35;;;;;;;4.25;100.00;97436.44;4356802;32;20036;-74
2022/01/04 06:02:35;;;;;;;7.70;4.62;;;;;;;4.28;100.00;97459.91;4356122;32;20187;-75
2022/01/04 06:05:03;;;;;;;8.88;4.65;;;;;;;4.33;100.00;97449.31;4370779;32;20397;-75
2022/01/04 06:07:29;;;;;;;7.95;5.60;;;;;;;4.30;100.00;97454.34;4358117;32;20057;-75
2022/01/04 06:09:56;;;;;;;10.43;5.50;;;;;;;4.28;100.00;97459.12;4371546;32;20896;-76
2022/01/04 06:14:53;;;;;;;11.63;6.68;;;;;;;4.24;100.00;97439.34;4369070;32;20035;-76
2022/01/04 06:17:28;;;;;;;12.20;6.62;;;;;;;4.12;100.00;97410.16;4371484;32;20068;-76
2022/01/04 06:19:57;;;;;;;12.32;6.20;;;;;;;4.35;100.00;97447.19;4365448;32;20061;-75
2022/01/04 06:22:25;;;;;;;9.10;5.45;;;;;;;4.27;100.00;97442.31;4364072;32;20103;-74
2022/01/04 06:24:53;;;;;;;17.40;5.37;;;;;;;4.11;100.00;97405.88;4365329;32;20037;-75
2022/01/04 06:27:21;;;;;;;16.92;6.05;;;;;;;4.34;100.00;97434.94;4370477;32;20104;-75
2022/01/04 06:29:48;;;;;;;9.80;6.30;;;;;;;4.30;100.00;97435.69;4357606;32;20057;-74
2022/01/04 06:32:15;;;;;;;11.60;5.18;;;;;;;4.31;100.00;97431.97;4371468;32;20065;-75
2022/01/04 06:34:43;;;;;;;13.10;4.95;;;;;;;4.16;100.00;97395.28;4371302;32;20032;-74
2022/01/04 06:37:12;;;;;;;9.23;5.60;;;;;;;4.13;100.00;97388.63;4369314;32;20048;-74
2022/01/04 06:39:38;;;;;;;9.85;5.07;;;;;;;4.49;100.00;97442.31;4369131;32;20042;-74
2022/01/04 06:42:05;;;;;;;7.95;5.22;;;;;;;4.33;100.00;97433.31;4371480;32;20060;-76
2022/01/04 06:44:32;;;;;;;10.75;5.45;;;;;;;4.15;100.00;97393.69;4369123;32;20055;-75
2022/01/04 06:46:59;;;;;;;13.05;5.53;;;;;;;4.39;100.00;97425.37;4369473;32;20031;-74
2022/01/04 06:49:25;;;;;;;7.80;5.35;;;;;;;4.29;100.00;97421.56;4370690;32;20400;-75
2022/01/04 06:51:52;;;;;;;10.45;5.70;;;;;;;4.33;100.00;97425.34;4370575;32;20055;-75
2022/01/04 06:54:20;;;;;;;16.05;6.68;;;;;;;4.07;100.00;97386.09;4357123;32;20032;-75
2022/01/04 06:56:48;;;;;;;14.23;5.87;;;;;;;4.31;100.00;97424.78;4369954;32;20409;-74
2022/01/04 06:59:16;;;;;;;13.90;7.07;;;;;;;4.28;100.00;97419.94;4370059;32;20208;-74
2022/01/04 07:01:43;;;;;;;9.32;5.20;;;;;;;4.17;100.00;97370.25;4370532;32;20429;-74
2022/01/04 07:04:10;;;;;;;7.90;5.60;;;;;;;4.06;100.00;97373.88;4368695;32;20070;-75
2022/01/04 07:06:36;;;;;;;13.85;5.05;;;;;;;4.21;100.00;97398.00;4371015;32;20043;-75
2022/01/04 07:09:05;;;;;;;19.25;5.87;;;;;;;4.02;100.00;97367.41;4370810;32;20066;-75
2022/01/04 07:11:32;;;;;;;14.68;6.00;;;;;;;4.21;100.00;97397.22;4367675;32;20039;-75
2022/01/04 07:13:59;;;;;;;11.18;5.32;;;;;;;4.29;100.00;97405.59;4369859;32;20061;-75
2022/01/04 07:16:26;;;;;;;10.15;5.50;;;;;;;4.30;100.00;97401.84;4366621;32;20088;-75
2022/01/04 07:18:53;;;;;;;11.15;5.45;;;;;;;4.25;100.00;97401.78;4361575;32;20073;-75
2022/01/04 07:21:20;;;;;;;8.20;4.37;;;;;;;4.00;100.00;97376.47;4357631;32;20039;-75
2022/01/04 07:23:51;;;;;;;9.05;5.90;;;;;;;4.10;100.00;97358.97;4368153;32;20433;-75
2022/01/04 07:26:17;;;;;;;15.30;6.45;;;;;;;4.33;100.00;97393.34;4363134;32;20053;-75
2022/01/04 07:28:47;;;;;;;8.65;5.10;;;;;;;4.36;100.00;97408.84;4359293;32;20205;-76
2022/01/04 07:31:14;;;;;;;11.73;5.95;;;;;;;3.96;100.00;97326.63;4368450;32;20053;-74
2022/01/04 07:33:42;;;;;;;13.27;6.78;;;;;;;4.22;100.00;97354.34;4370372;32;20103;-76
2022/01/04 07:36:08;;;;;;;11.12;5.37;;;;;;;4.39;100.00;97382.75;4362900;32;20090;-73
2022/01/04 07:38:36;;;;;;;16.10;6.70;;;;;;;4.17;100.00;97348.97;4360219;32;20068;-74
2022/01/04 07:41:04;;;;;;;13.48;5.78;;;;;;;4.44;100.00;97386.28;4361384;32;20043;-74
2022/01/04 07:43:32;;;;;;;9.25;5.72;;;;;;;4.09;100.00;97325.44;4355727;32;20099;-75
2022/01/04 07:45:59;;;;;;;11.48;5.97;;;;;;;4.23;100.00;97331.97;4357855;32;20035;-74
2022/01/04 07:48:25;;;;;;;17.83;7.62;;;;;;;4.17;100.00;97328.44;4355139;32;20040;-76
2022/01/04 07:50:55;;;;;;;10.70;6.47;;;;;;;4.46;100.00;97365.50;4355931;32;20073;-75
2022/01/04 07:53:22;;;;;;;11.10;6.43;;;;;;;4.43;100.00;97357.22;4342951;32;20420;-77
2022/01/04 07:55:49;;;;;;;12.15;6.20;;;;;;;4.17;100.00;97317.78;4370124;32;20087;-74
2022/01/04 07:58:15;;;;;;;9.88;6.10;;;;;;;4.26;100.00;97310.16;4367825;32;20069;-75
2022/01/04 08:00:42;;;;;;;11.85;6.22;;;;;;;4.48;100.00;97346.59;4364679;32;20380;-77
2022/01/04 08:03:10;;;;;;;12.07;7.10;;;;;;;4.47;100.00;97337.03;4367653;32;20055;-76
2022/01/04 08:08:10;;;;;;;17.60;8.40;;;;;;;4.18;100.00;97281.31;4366389;32;20040;-75
2022/01/04 08:10:37;;;;;;;15.65;8.13;;;;;;;4.51;100.00;97316.78;4367104;32;20031;-75
2022/01/04 08:13:03;;;;;;;15.43;6.68;;;;;;;4.25;100.00;97273.91;4364877;32;20065;-75
2022/01/04 08:15:30;;;;;;;12.30;7.12;;;;;;;4.48;100.00;97307.44;4362015;32;20043;-75
2022/01/04 08:17:58;;;;;;;22.37;7.35;;;;;;;4.54;100.00;97306.41;4366969;32;20072;-75
2022/01/04 08:20:25;;;;;;;17.80;7.57;;;;;;;4.52;100.00;97291.75;4371680;32;20185;-75
2022/01/04 08:22:52;;;;;;;11.85;6.37;;;;;;;4.32;100.00;97258.53;4359412;32;20043;-75
2022/01/04 08:25:18;;;;;;;15.73;7.53;;;;;;;4.59;100.00;97287.00;4369584;32;20031;-75
2022/01/04 08:27:45;;;;;;;20.98;7.97;;;;;;;4.62;100.00;97275.84;4372498;32;20412;-74
2022/01/04 08:30:13;;;;;;;13.60;8.02;;;;;;;4.57;100.00;97278.47;4372539;32;20047;-76
2022/01/04 08:32:40;;;;;;;15.40;6.90;;;;;;;4.68;100.00;97269.50;4370945;32;20069;-75
2022/01/04 08:35:08;;;;;;;19.15;7.70;;;;;;;4.46;100.00;97226.13;4372207;32;20081;-75
2022/01/04 08:37:34;;;;;;;14.05;6.60;;;;;;;4.65;100.00;97263.88;4359038;32;20736;-75
2022/01/04 08:40:01;;;;;;;14.73;7.07;;;;;;;4.63;100.00;97245.47;4372829;32;20065;-75
2022/01/04 08:42:27;;;;;;;13.48;6.32;;;;;;;4.68;100.00;97250.03;4372400;32;20052;-76
2022/01/04 08:44:55;;;;;;;13.43;5.90;;;;;;;4.69;100.00;97228.44;4371685;32;20035;-76
2022/01/04 08:47:22;;;;;;;15.23;7.28;;;;;;;4.78;100.00;97227.97;4372497;32;20031;-75
2022/01/04 08:49:49;;;;;;;13.35;6.20;;;;;;;4.82;100.00;97221.03;4363215;32;20039;-75
2022/01/04 08:52:16;;;;;;;10.90;6.45;;;;;;;4.75;100.00;97225.81;4371400;32;20039;-75
2022/01/04 08:54:43;;;;;;;10.63;6.05;;;;;;;4.52;100.00;97187.81;4372068;32;20053;-75
2022/01/04 08:57:10;;;;;;;14.45;6.37;;;;;;;4.61;100.00;97186.28;4359171;32;20051;-76
2022/01/04 08:59:36;;;;;;;10.32;6.40;;;;;;;4.63;100.00;97181.47;4362292;32;20048;-76
2022/01/04 09:02:03;;;;;;;12.40;6.35;;;;;;;4.83;100.00;97217.34;4364021;32;20065;-76
2022/01/04 09:04:30;;;;;;;19.25;6.10;;;;;;;4.78;100.00;97210.09;4363082;32;20065;-75
2022/01/04 09:06:57;;;;;;;23.15;6.50;;;;;;;4.85;100.00;97209.88;4370907;32;20069;-76
2022/01/04 09:09:23;;;;;;;14.05;6.18;;;;;;;4.82;100.00;97181.87;4367228;32;20094;-76
2022/01/04 09:11:50;;;;;;;17.37;6.65;;;;;;;5.09;100.00;97216.44;4370290;32;20065;-75
2022/01/04 09:14:41;;;;;;;22.62;6.57;;;;;;;5.09;100.00;97215.62;4370569;32;20031;-76
2022/01/04 09:19:55;;;;;;;13.55;6.32;;;;;;;5.19;100.00;97220.22;4370974;32;20161;-76
2022/01/04 09:22:22;;;;;;;13.98;8.23;;;;;;;5.28;100.00;97218.66;4371246;32;20077;-75
2022/01/04 09:24:48;;;;;;;20.35;7.28;;;;;;;5.23;100.00;97210.63;4372432;32;20035;-73
2022/01/04 09:27:15;;;;;;;15.52;6.62;;;;;;;5.31;100.00;97207.44;4371466;32;20098;-72
2022/01/04 09:29:41;;;;;;;13.70;6.22;;;;;;;5.39;100.00;97200.81;4370905;32;20043;-73
2022/01/04 09:32:13;;;;;;;14.77;8.00;;;;;;;5.28;100.00;97197.28;4372215;32;20032;-73
2022/01/04 09:34:39;;;;;;;16.90;8.48;;;;;;;5.29;100.00;97196.25;4371641;32;20218;-72
2022/01/04 09:37:06;;;;;;;12.50;7.00;;;;;;;5.33;100.00;97189.34;4369135;32;20057;-73
2022/01/04 09:39:32;;;;;;;12.90;7.22;;;;;;;5.38;100.00;97178.69;4356881;32;20097;-73
2022/01/04 09:42:00;;;;;;;12.75;6.50;;;;;;;5.22;100.00;97169.00;4371521;32;20051;-73
2022/01/04 09:44:27;;;;;;;14.25;7.60;;;;;;;5.44;100.00;97177.62;4374804;32;20057;-72
2022/01/04 09:46:55;;;;;;;13.20;7.90;;;;;;;5.42;100.00;97174.41;4363927;32;20184;-73
2022/01/04 09:49:22;;;;;;;15.30;6.97;;;;;;;5.45;100.00;97165.87;4365576;32;20054;-72
2022/01/04 09:51:49;;;;;;;12.85;6.95;;;;;;;5.31;100.00;97135.41;4363586;32;20111;-72
2022/01/04 09:54:22;;;;;;;12.35;7.22;;;;;;;5.44;100.00;97161.62;4366878;32;20346;-73
2022/01/04 09:56:50;;;;;;;14.18;6.32;;;;;;;5.33;100.00;97125.28;4361890;32;20039;-74
2022/01/04 09:59:18;;;;;;;15.25;6.62;;;;;;;5.53;100.00;97155.75;4350072;32;20197;-71
2022/01/04 10:01:51;;;;;;;14.13;6.78;;;;;;;5.56;100.00;97149.91;4363505;32;20351;-72
2022/01/04 10:04:24;;;;;;;16.33;7.30;;;;;;;5.44;100.00;97137.59;4362064;32;20083;-72
2022/01/04 10:07:05;;;;;;;13.68;6.55;;;;;;;5.37;100.00;97102.31;4354320;32;20062;-72
2022/01/04 10:09:48;;;;;;;15.13;6.25;;;;;;;5.33;100.00;97093.25;4369784;32;20067;-72
2022/01/04 10:12:17;;;;;;;13.48;6.22;;;;;;;5.60;100.00;97134.94;4362801;32;20036;-73
2022/01/04 10:14:46;;;;;;;17.52;5.90;;;;;;;5.65;100.00;97121.63;4360625;32;20492;-72
2022/01/04 10:17:28;;;;;;;18.87;6.10;;;;;;;5.72;100.00;97121.38;4363613;32;20452;-73
2022/01/04 10:19:57;;;;;;;16.27;6.30;;;;;;;5.76;100.00;97120.56;4361316;32;20099;-73
2022/01/04 10:22:27;;;;;;;9.60;5.50;;;;;;;5.52;100.00;97090.06;4362050;32;20417;-73
2022/01/04 10:25:03;;;;;;;11.10;5.22;;;;;;;5.38;100.00;97063.91;4363822;32;20071;-72
2022/01/04 10:27:38;;;;;;;13.43;5.93;;;;;;;5.72;100.00;97116.81;4360887;32;20537;-72
2022/01/04 10:30:16;;;;;;;24.83;7.72;;;;;;;5.80;100.00;97113.63;4360135;32;20032;-74
2022/01/04 10:33:13;;;;;;;24.50;6.90;;;;;;;5.76;100.00;97096.53;4363944;32;20063;-73
2022/01/04 10:35:43;;;;;;;17.80;6.28;;;;;;;5.79;100.00;97092.53;4360922;32;20085;-73
2022/01/04 10:38:32;;;;;;;17.17;5.45;;;;;;;5.75;100.00;97089.59;4363003;32;20082;-73
2022/01/04 10:41:06;;;;;;;10.77;6.43;;;;;;;5.68;100.00;97075.72;4362729;32;20044;-72
2022/01/04 10:43:40;;;;;;;15.38;5.78;;;;;;;5.73;100.00;97088.25;4362493;32;20057;-72
2022/01/04 10:46:07;;;;;;;14.95;7.30;;;;;;;5.68;100.00;97078.38;4361778;32;20051;-72
2022/01/04 10:48:43;;;;;;;18.75;7.25;;;;;;;5.66;100.00;97075.16;4363621;32;20083;-73
2022/01/04 10:51:30;;;;;;;20.48;8.07;;;;;;;5.64;100.00;97072.75;4338804;32;20048;-71
2022/01/04 10:54:06;;;;;;;23.55;8.93;;;;;;;5.75;100.00;97068.22;4366664;32;20178;-71
2022/01/04 10:56:34;;;;;;;16.52;7.55;;;;;;;5.57;100.00;97050.06;4354795;32;20057;-72
2022/01/04 10:59:08;;;;;;;23.85;8.60;;;;;;;5.45;100.00;97024.41;4364819;32;20091;-71
2022/01/04 11:01:43;;;;;;;24.30;7.87;;;;;;;5.64;100.00;97050.59;4363376;32;20035;-71
2022/01/04 11:04:13;;;;;;;23.08;8.98;;;;;;;5.59;100.00;97047.94;4362460;32;20101;-71
2022/01/04 11:06:41;;;;;;;16.12;7.78;;;;;;;5.53;100.00;97035.63;4361631;32;20065;-74
2022/01/04 11:09:08;;;;;;;22.92;8.45;;;;;;;5.38;100.00;97004.41;4360461;32;20051;-72
2022/01/04 11:11:36;;;;;;;17.60;7.55;;;;;;;5.61;100.00;97035.09;4360002;32;20097;-72
2022/01/04 11:14:03;;;;;;;13.13;8.10;;;;;;;5.27;100.00;96987.56;4350926;32;20407;-73
2022/01/04 11:16:31;;;;;;;11.82;7.30;;;;;;;5.46;100.00;96996.66;4364696;32;20065;-73
2022/01/04 11:18:59;;;;;;;17.85;6.82;;;;;;;5.40;100.00;96987.03;4354669;32;20069;-73
2022/01/04 11:21:33;;;;;;;16.42;6.68;;;;;;;5.17;100.00;96967.03;4353556;32;20443;-74
2022/01/04 11:24:03;;;;;;;15.15;7.18;;;;;;;5.57;100.00;97012.69;4351544;32;20049;-74
2022/01/04 11:26:30;;;;;;;14.95;6.37;;;;;;;5.57;100.00;97012.69;4354764;32;20760;-72
2022/01/04 11:28:58;;;;;;;15.63;6.30;;;;;;;5.61;100.00;97003.84;4356160;32;20060;-72
2022/01/04 11:31:49;;;;;;;13.27;7.43;;;;;;;5.64;100.00;97005.19;4359889;32;20516;-72
2022/01/04 11:34:54;;;;;;;20.02;7.55;;;;;;;5.64;100.00;96999.88;4347450;32;20400;-74
2022/01/04 11:37:22;;;;;;;16.58;6.90;;;;;;;5.56;100.00;96987.84;4346596;32;20074;-73
2022/01/04 11:39:51;;;;;;;13.50;6.80;;;;;;;5.59;100.00;96989.19;4363859;32;20061;-72
2022/01/04 11:42:34;;;;;;;12.90;6.80;;;;;;;5.44;100.00;96965.94;4365894;32;20074;-75
2022/01/04 11:45:03;;;;;;;14.50;6.95;;;;;;;5.25;100.00;96947.03;4363977;32;20108;-77